createdAt,value
2023-02-04T00:00:37.245Z,2.10
2023-02-04T00:03:05.820Z,2.92
2023-02-04T00:05:34.302Z,2.60
2023-02-04T00:08:04.103Z,3.28
2023-02-04T00:10:33.962Z,2.22
2023-02-04T00:13:02.438Z,2.75
2023-02-04T00:15:30.847Z,2.63
2023-02-04T00:17:59.074Z,2.55
2023-02-04T00:20:27.380Z,2.35
2023-02-04T00:22:56.421Z,2.92
2023-02-04T00:25:24.721Z,2.38
2023-02-04T00:27:54.633Z,1.92
2023-02-04T00:30:22.969Z,3.15
2023-02-04T00:32:54.627Z,3.40
2023-02-04T00:35:23.026Z,2.45
2023-02-04T00:37:51.250Z,2.70
2023-02-04T00:40:19.788Z,2.92
2023-02-04T00:42:48.110Z,1.77
2023-02-04T00:45:17.652Z,3.40
2023-02-04T00:47:45.932Z,2.55
2023-02-04T00:50:14.600Z,2.47
2023-02-04T00:52:42.994Z,2.45
2023-02-04T00:55:12.261Z,2.90
2023-02-04T00:57:40.696Z,2.83
2023-02-04T01:00:09.481Z,2.88
2023-02-04T01:02:40.645Z,3.92
2023-02-04T01:05:09.180Z,2.45
2023-02-04T01:07:37.477Z,2.10
2023-02-04T01:10:05.945Z,2.10
2023-02-04T01:12:34.225Z,2.38
2023-02-04T01:15:02.607Z,2.40
2023-02-04T01:17:32.745Z,3.05
2023-02-04T01:20:02.464Z,2.45
2023-02-04T01:22:30.877Z,2.90
2023-02-04T01:24:59.225Z,2.15
2023-02-04T01:27:43.346Z,3.13
2023-02-04T01:30:12.361Z,2.70
2023-02-04T01:32:40.667Z,2.70
2023-02-04T01:35:11.163Z,2.53
2023-02-04T01:37:40.020Z,2.67
2023-02-04T01:40:09.012Z,2.22
2023-02-04T01:42:37.476Z,2.80
2023-02-04T01:45:06.356Z,2.78
2023-02-04T01:47:36.093Z,2.58
2023-02-04T01:50:05.282Z,2.72
2023-02-04T01:52:36.991Z,2.22
2023-02-04T01:55:06.424Z,2.72
2023-02-04T01:57:35.064Z,2.97
2023-02-04T02:00:03.308Z,3.03
2023-02-04T02:02:46.592Z,3.05
2023-02-04T02:05:16.680Z,2.53
2023-02-04T02:07:46.562Z,2.67
2023-02-04T02:10:15.366Z,3.20
2023-02-04T02:12:44.786Z,2.35
2023-02-04T02:15:14.555Z,2.47
2023-02-04T02:17:42.879Z,2.83
2023-02-04T02:20:12.274Z,3.38
2023-02-04T02:22:44.180Z,2.45
2023-02-04T02:25:14.725Z,2.60
2023-02-04T02:27:44.679Z,3.53
2023-02-04T02:30:17.757Z,2.88
2023-02-04T02:32:46.810Z,3.00
2023-02-04T02:35:15.462Z,3.45
2023-02-04T02:37:43.951Z,2.65
2023-02-04T02:40:15.756Z,2.50
2023-02-04T02:42:44.622Z,2.97
2023-02-04T02:45:15.282Z,3.00
2023-02-04T02:47:43.639Z,3.42
2023-02-04T02:50:14.947Z,3.00
2023-02-04T02:52:43.359Z,2.38
2023-02-04T02:55:17.079Z,3.30
2023-02-04T02:57:47.259Z,2.88
2023-02-04T03:00:16.724Z,3.13
2023-02-04T03:02:45.520Z,3.33
2023-02-04T03:05:15.111Z,2.45
2023-02-04T03:07:44.228Z,3.80
2023-02-04T03:10:12.481Z,2.58
2023-02-04T03:12:42.045Z,4.05
2023-02-04T03:15:10.602Z,2.50
2023-02-04T03:17:38.915Z,3.30
2023-02-04T03:20:08.036Z,3.03
2023-02-04T03:22:37.536Z,4.32
2023-02-04T03:25:06.197Z,2.38
2023-02-04T03:27:34.564Z,2.40
2023-02-04T03:30:04.219Z,2.72
2023-02-04T03:32:32.461Z,2.50
2023-02-04T03:35:00.901Z,2.50
2023-02-04T03:37:29.272Z,2.90
2023-02-04T03:39:57.582Z,3.20
2023-02-04T03:42:25.802Z,2.25
2023-02-04T03:44:54.455Z,2.45
2023-02-04T03:47:24.015Z,2.67
2023-02-04T03:49:52.205Z,3.13
2023-02-04T03:52:21.314Z,2.53
2023-02-04T03:54:49.510Z,2.67
2023-02-04T03:57:18.007Z,2.70
2023-02-04T03:59:46.403Z,2.53
2023-02-04T04:02:14.788Z,2.20
2023-02-04T04:04:44.335Z,2.20
2023-02-04T04:07:12.703Z,2.05
2023-02-04T04:09:40.933Z,2.38
2023-02-04T04:12:09.166Z,2.80
2023-02-04T04:14:37.415Z,2.72
2023-02-04T04:17:05.646Z,2.70
2023-02-04T04:19:34.276Z,2.17
2023-02-04T04:22:03.984Z,2.80
2023-02-04T04:24:32.208Z,3.10
2023-02-04T04:27:00.654Z,2.88
2023-02-04T04:29:28.970Z,3.00
2023-02-04T04:31:57.336Z,2.80
2023-02-04T04:34:25.623Z,3.40
2023-02-04T04:36:53.946Z,2.70
2023-02-04T04:39:23.586Z,2.22
2023-02-04T04:41:51.922Z,3.33
2023-02-04T04:44:20.233Z,3.15
2023-02-04T04:46:48.693Z,2.90
2023-02-04T04:49:17.368Z,2.72
2023-02-04T04:51:45.707Z,2.50
2023-02-04T04:54:13.971Z,2.53
2023-02-04T04:56:43.766Z,2.47
2023-02-04T04:59:11.968Z,2.80
2023-02-04T05:01:40.286Z,1.70
2023-02-04T05:04:08.686Z,2.30
2023-02-04T05:06:36.887Z,2.25
2023-02-04T05:09:05.223Z,2.33
2023-02-04T05:11:33.551Z,2.25
2023-02-04T05:14:03.174Z,1.92
2023-02-04T05:16:31.730Z,2.13
2023-02-04T05:19:00.130Z,2.55
2023-02-04T05:21:28.692Z,2.65
2023-02-04T05:23:57.069Z,2.13
2023-02-04T05:26:30.617Z,2.55
2023-02-04T05:29:01.062Z,2.13
2023-02-04T05:31:30.891Z,2.38
2023-02-04T05:33:59.133Z,2.63
2023-02-04T05:36:27.415Z,2.33
2023-02-04T05:38:55.817Z,2.38
2023-02-04T05:41:24.150Z,2.45
2023-02-04T05:43:52.353Z,2.88
2023-02-04T05:46:20.818Z,2.40
2023-02-04T05:48:50.481Z,3.28
2023-02-04T05:51:18.691Z,2.42
2023-02-04T05:53:47.034Z,2.35
2023-02-04T05:56:15.270Z,2.67
2023-02-04T05:58:43.433Z,2.75
2023-02-04T06:01:12.190Z,2.60
2023-02-04T06:03:40.458Z,2.22
2023-02-04T06:06:10.282Z,2.90
2023-02-04T06:08:38.711Z,3.30
2023-02-04T06:11:07.087Z,2.20
2023-02-04T06:13:35.282Z,2.45
2023-02-04T06:16:03.624Z,2.22
2023-02-04T06:18:31.955Z,2.92
2023-02-04T06:21:00.175Z,3.55
2023-02-04T06:23:30.075Z,2.47
2023-02-04T06:25:58.673Z,2.65
2023-02-04T06:28:27.142Z,3.40
2023-02-04T06:30:55.963Z,3.78
2023-02-04T06:33:24.212Z,3.70
2023-02-04T06:35:52.517Z,3.90
2023-02-04T06:38:20.975Z,3.45
2023-02-04T06:40:53.622Z,2.70
2023-02-04T06:43:22.527Z,2.40
2023-02-04T06:45:51.850Z,3.05
2023-02-04T06:48:20.319Z,3.25
2023-02-04T06:50:48.805Z,2.42
2023-02-04T06:53:17.055Z,2.67
2023-02-04T06:55:45.272Z,3.03
2023-02-04T06:58:15.018Z,3.03
2023-02-04T07:00:43.259Z,2.80
2023-02-04T07:03:11.515Z,2.45
2023-02-04T07:05:39.995Z,3.15
2023-02-04T07:08:08.236Z,3.45
2023-02-04T07:10:36.450Z,3.25
2023-02-04T07:13:04.782Z,3.80
2023-02-04T07:15:34.423Z,3.70
2023-02-04T07:18:02.598Z,3.83
2023-02-04T07:20:31.224Z,3.95
2023-02-04T07:22:59.800Z,3.13
2023-02-04T07:25:28.596Z,3.83
2023-02-04T07:27:57.799Z,3.78
2023-02-04T07:30:26.104Z,3.78
2023-02-04T07:32:55.640Z,4.03
2023-02-04T07:35:24.284Z,3.20
2023-02-04T07:37:52.538Z,2.95
2023-02-04T07:40:21.740Z,4.05
2023-02-04T07:42:50.087Z,4.00
2023-02-04T07:45:20.292Z,2.67
2023-02-04T07:47:48.673Z,3.08
2023-02-04T07:50:18.391Z,3.35
2023-02-04T07:52:46.627Z,2.67
2023-02-04T07:55:14.841Z,2.42
2023-02-04T07:57:43.176Z,2.83
2023-02-04T08:00:14.051Z,3.17
2023-02-04T08:02:42.389Z,2.25
2023-02-04T08:05:11.195Z,3.00
2023-02-04T08:07:40.866Z,3.40
2023-02-04T08:10:10.240Z,2.47
2023-02-04T08:12:38.619Z,3.15
2023-02-04T08:15:08.540Z,2.55
2023-02-04T08:17:36.927Z,3.13
2023-02-04T08:20:05.694Z,3.42
2023-02-04T08:22:35.009Z,3.90
2023-02-04T08:25:05.294Z,3.03
2023-02-04T08:27:33.685Z,3.38
2023-02-04T08:30:01.962Z,2.78
2023-02-04T08:32:31.236Z,3.42
2023-02-04T08:35:00.150Z,3.20
2023-02-04T08:37:28.822Z,3.47
2023-02-04T08:39:57.213Z,2.55
2023-02-04T08:42:26.999Z,3.25
2023-02-04T08:44:55.242Z,3.60
2023-02-04T08:47:23.486Z,3.83
2023-02-04T08:49:51.915Z,2.92
2023-02-04T08:52:20.230Z,3.55
2023-02-04T08:54:48.460Z,2.72
2023-02-04T08:57:16.798Z,3.92
2023-02-04T08:59:46.532Z,2.92
2023-02-04T09:02:14.884Z,3.92
2023-02-04T09:04:43.283Z,3.28
2023-02-04T09:07:11.468Z,3.10
2023-02-04T09:09:39.774Z,3.38
2023-02-04T09:12:08.187Z,2.72
2023-02-04T09:14:36.513Z,2.83
2023-02-04T09:17:07.510Z,3.80
2023-02-04T09:19:35.821Z,2.88
2023-02-04T09:22:04.168Z,3.42
2023-02-04T09:24:32.376Z,3.35
2023-02-04T09:27:00.820Z,3.13
2023-02-04T09:29:29.128Z,4.07
2023-02-04T09:31:58.437Z,3.28
2023-02-04T09:34:28.331Z,3.20
2023-02-04T09:36:56.868Z,3.35
2023-02-04T09:39:25.121Z,3.63
2023-02-04T09:41:54.606Z,4.20
2023-02-04T09:44:24.185Z,4.55
2023-02-04T09:46:54.048Z,3.72
2023-02-04T09:49:22.477Z,3.95
2023-02-04T09:51:52.530Z,2.85
2023-02-04T09:54:21.637Z,3.58
2023-02-04T09:56:50.448Z,4.15
2023-02-04T09:59:20.957Z,3.40
2023-02-04T10:01:50.176Z,3.47
2023-02-04T10:04:18.529Z,4.65
2023-02-04T10:06:46.979Z,3.83
2023-02-04T10:09:17.733Z,4.00
2023-02-04T10:11:49.516Z,3.88
2023-02-04T10:14:19.948Z,3.05
2023-02-04T10:16:50.529Z,3.80
2023-02-04T10:19:18.838Z,4.35
2023-02-04T10:21:47.694Z,5.07
2023-02-04T10:24:18.502Z,5.57
2023-02-04T10:26:47.034Z,5.18
2023-02-04T10:29:16.284Z,4.93
2023-02-04T10:31:46.110Z,5.20
2023-02-04T10:34:18.545Z,5.68
2023-02-04T10:36:48.103Z,4.47
2023-02-04T10:39:20.774Z,4.38
2023-02-04T10:41:50.750Z,4.80
2023-02-04T10:44:20.059Z,4.70
2023-02-04T10:46:48.398Z,5.28
2023-02-04T10:49:21.902Z,4.15
2023-02-04T10:51:50.676Z,4.85
2023-02-04T10:54:33.844Z,3.60
2023-02-04T10:57:04.979Z,3.65
2023-02-04T10:59:33.517Z,3.03
2023-02-04T11:02:03.938Z,3.97
2023-02-04T11:04:33.219Z,3.33
2023-02-04T11:07:02.020Z,2.72
2023-02-04T11:09:31.807Z,3.53
2023-02-04T11:12:00.846Z,3.83
2023-02-04T11:14:30.672Z,3.53
2023-02-04T11:17:01.002Z,2.70
2023-02-04T11:19:33.802Z,3.25
2023-02-04T11:22:08.070Z,3.20
2023-02-04T11:24:37.809Z,3.50
2023-02-04T11:27:10.033Z,3.05
2023-02-04T11:29:39.045Z,2.95
2023-02-04T11:32:08.675Z,2.95
2023-02-04T11:34:47.625Z,2.60
2023-02-04T11:37:18.200Z,2.70
2023-02-04T11:39:48.675Z,2.47
2023-02-04T11:42:21.553Z,3.25
2023-02-04T11:44:54.032Z,2.50
2023-02-04T11:47:24.193Z,3.08
2023-02-04T11:49:55.472Z,3.03
2023-02-04T11:52:24.377Z,2.78
2023-02-04T11:54:57.230Z,2.05
2023-02-04T11:57:25.646Z,3.17
2023-02-04T11:59:53.992Z,2.60
2023-02-04T12:02:24.364Z,2.35
2023-02-04T12:04:53.654Z,2.63
2023-02-04T12:07:29.787Z,2.75
2023-02-04T12:09:59.762Z,2.88
2023-02-04T12:12:29.790Z,2.92
2023-02-04T12:14:58.789Z,2.15
2023-02-04T12:17:27.260Z,2.70
2023-02-04T12:19:55.492Z,2.40
2023-02-04T12:22:23.905Z,2.45
2023-02-04T12:24:53.086Z,2.30
2023-02-04T12:27:23.018Z,1.80
2023-02-04T12:29:51.291Z,1.98
2023-02-04T12:32:19.703Z,2.70
2023-02-04T12:34:47.970Z,1.95
2023-02-04T12:37:16.322Z,2.00
2023-02-04T12:39:44.639Z,2.75
2023-02-04T12:42:13.080Z,2.67
2023-02-04T12:44:42.734Z,2.08
2023-02-04T12:47:11.166Z,1.95
2023-02-04T12:49:39.433Z,2.60
2023-02-04T12:52:07.674Z,3.45
2023-02-04T12:54:36.013Z,2.88
2023-02-04T12:57:04.260Z,2.90
2023-02-04T12:59:32.681Z,3.30
2023-02-04T13:02:02.495Z,2.10
2023-02-04T13:04:30.884Z,2.80
2023-02-04T13:06:59.366Z,2.53
2023-02-04T13:09:27.812Z,2.20
2023-02-04T13:11:56.160Z,2.90
2023-02-04T13:14:24.488Z,2.25
2023-02-04T13:16:52.992Z,2.67
2023-02-04T13:19:22.603Z,2.92
2023-02-04T13:21:50.946Z,1.95
2023-02-04T13:24:19.301Z,2.90
2023-02-04T13:26:47.609Z,2.80
2023-02-04T13:29:15.788Z,2.72
2023-02-04T13:31:44.254Z,3.30
2023-02-04T13:34:12.534Z,2.95
2023-02-04T13:36:43.551Z,3.65
2023-02-04T13:39:12.067Z,2.28
2023-02-04T13:41:40.893Z,3.45
2023-02-04T13:44:09.588Z,2.95
2023-02-04T13:46:37.885Z,3.22
2023-02-04T13:49:06.145Z,3.53
2023-02-04T13:51:34.428Z,3.17
2023-02-04T13:54:04.096Z,3.75
2023-02-04T13:56:33.353Z,3.22
2023-02-04T13:59:01.602Z,3.78
2023-02-04T14:01:30.212Z,3.28
2023-02-04T14:03:58.676Z,3.70
2023-02-04T14:06:33.424Z,4.15
2023-02-04T14:09:01.951Z,4.88
2023-02-04T14:11:31.888Z,5.10
2023-02-04T14:14:00.381Z,4.10
2023-02-04T14:16:28.835Z,5.10
2023-02-04T14:18:57.190Z,4.45
2023-02-04T14:21:25.517Z,4.00
2023-02-04T14:23:53.862Z,3.70
2023-02-04T14:26:22.093Z,3.92
2023-02-04T14:28:51.852Z,3.38
2023-02-04T14:31:20.196Z,4.22
2023-02-04T14:33:50.337Z,4.80
2023-02-04T14:36:18.851Z,3.65
2023-02-04T14:38:47.336Z,4.25
2023-02-04T14:41:17.392Z,2.92
2023-02-04T14:43:45.675Z,4.30
2023-02-04T14:46:15.389Z,3.92
2023-02-04T14:48:45.419Z,3.60
2023-02-04T14:51:13.835Z,3.80
2023-02-04T14:53:46.106Z,3.53
2023-02-04T14:56:16.612Z,4.00
2023-02-04T14:58:44.963Z,3.75
2023-02-04T15:01:14.721Z,3.90
2023-02-04T15:03:43.046Z,3.63
2023-02-04T15:06:11.458Z,3.47
2023-02-04T15:08:39.691Z,3.53
2023-02-04T15:11:08.101Z,3.72
2023-02-04T15:13:36.414Z,3.50
2023-02-04T15:16:05.536Z,3.67
2023-02-04T15:18:35.450Z,3.80
2023-02-04T15:21:03.805Z,3.42
2023-02-04T15:23:32.075Z,3.28
2023-02-04T15:26:00.659Z,4.32
2023-02-04T15:28:29.900Z,4.70
2023-02-04T15:30:58.559Z,3.53
2023-02-04T15:33:26.961Z,3.65
2023-02-04T15:35:56.651Z,3.60
2023-02-04T15:38:25.461Z,4.22
2023-02-04T15:40:55.680Z,4.03
2023-02-04T15:43:23.975Z,3.97
2023-02-04T15:45:52.278Z,4.68
2023-02-04T15:48:21.190Z,3.90
2023-02-04T15:50:49.553Z,4.38
2023-02-04T15:53:19.482Z,3.55
2023-02-04T15:55:47.890Z,3.40
2023-02-04T15:58:16.166Z,4.05
2023-02-04T16:00:44.970Z,3.50
2023-02-04T16:03:13.368Z,4.47
2023-02-04T16:05:41.741Z,4.45
2023-02-04T16:08:10.045Z,3.72
2023-02-04T16:10:39.624Z,3.85
2023-02-04T16:13:08.036Z,4.03
2023-02-04T16:15:37.264Z,3.97
2023-02-04T16:18:05.700Z,4.25
2023-02-04T16:20:33.983Z,4.18
2023-02-04T16:23:04.213Z,4.28
2023-02-04T16:25:32.729Z,4.72
2023-02-04T16:28:02.622Z,4.72
2023-02-04T16:30:31.220Z,4.70
2023-02-04T16:32:59.632Z,4.45
2023-02-04T16:35:27.985Z,5.07
2023-02-04T16:37:56.513Z,5.85
2023-02-04T16:40:24.741Z,4.28
2023-02-04T16:42:53.030Z,6.18
2023-02-04T16:45:24.254Z,5.65
2023-02-04T16:47:52.592Z,4.65
2023-02-04T16:50:22.155Z,5.43
2023-02-04T16:52:50.517Z,5.43
2023-02-04T16:55:18.789Z,5.20
2023-02-04T16:57:47.229Z,5.90
2023-02-04T17:00:16.202Z,6.03
2023-02-04T17:02:45.830Z,6.18
2023-02-04T17:05:14.306Z,6.13
2023-02-04T17:07:42.628Z,7.07
2023-02-04T17:10:11.230Z,6.68
2023-02-04T17:12:39.725Z,6.95
2023-02-04T17:15:08.337Z,7.68
2023-02-04T17:17:36.556Z,6.53
2023-02-04T17:20:06.330Z,7.68
2023-02-04T17:22:35.010Z,7.20
2023-02-04T17:25:03.449Z,6.78
2023-02-04T17:27:31.778Z,7.90
2023-02-04T17:30:00.457Z,7.07
2023-02-04T17:32:28.864Z,6.90
2023-02-04T17:34:57.708Z,6.93
2023-02-04T17:37:28.155Z,7.00
2023-02-04T17:39:56.763Z,6.88
2023-02-04T17:42:25.022Z,6.18
2023-02-04T17:44:53.459Z,7.40
2023-02-04T17:47:21.737Z,8.15
2023-02-04T17:49:50.233Z,6.68
2023-02-04T17:52:18.954Z,6.53
2023-02-04T17:54:48.588Z,6.20
2023-02-04T17:57:18.754Z,6.93
2023-02-04T17:59:47.381Z,6.53
2023-02-04T18:02:20.654Z,6.95
2023-02-04T18:04:49.175Z,5.97
2023-02-04T18:07:17.505Z,6.78
2023-02-04T18:09:45.846Z,6.22
2023-02-04T18:12:16.771Z,6.80
2023-02-04T18:14:46.878Z,7.00
2023-02-04T18:17:16.143Z,7.53
2023-02-04T18:19:45.302Z,6.65
2023-02-04T18:22:15.793Z,6.53
2023-02-04T18:24:45.575Z,6.57
2023-02-04T18:27:17.194Z,6.53
2023-02-04T18:29:46.262Z,6.82
2023-02-04T18:32:17.863Z,7.68
2023-02-04T18:34:47.406Z,6.55
2023-02-04T18:37:27.742Z,7.78
2023-02-04T18:39:57.989Z,7.22
2023-02-04T18:42:29.019Z,8.40
2023-02-04T18:44:57.508Z,9.75
2023-02-04T18:47:29.880Z,11.05
2023-02-04T18:49:58.406Z,11.60
2023-02-04T18:52:27.555Z,11.63
2023-02-04T18:54:56.342Z,11.60
2023-02-04T18:57:30.055Z,11.38
2023-02-04T19:00:14.689Z,10.15
2023-02-04T19:02:44.028Z,10.50
2023-02-04T19:05:21.074Z,10.20
2023-02-04T19:07:51.173Z,8.77
2023-02-04T19:10:29.855Z,8.68
2023-02-04T19:13:01.357Z,7.95
2023-02-04T19:15:36.136Z,7.20
2023-02-04T19:18:11.810Z,8.82
2023-02-04T19:20:40.158Z,8.80
2023-02-04T19:23:11.686Z,8.52
2023-02-04T19:25:44.038Z,9.43
2023-02-04T19:28:19.812Z,9.18
2023-02-04T19:30:50.953Z,8.60
2023-02-04T19:33:27.349Z,10.07
2023-02-04T19:35:55.744Z,8.93
2023-02-04T19:38:31.512Z,9.50
2023-02-04T19:41:00.325Z,9.00
2023-02-04T19:43:33.706Z,10.07
2023-02-04T19:46:03.861Z,10.40
2023-02-04T19:48:34.900Z,10.27
2023-02-04T19:51:03.328Z,11.63
2023-02-04T19:53:33.443Z,10.75
2023-02-04T19:56:02.251Z,9.75
2023-02-04T19:58:31.255Z,10.20
2023-02-04T20:01:00.874Z,11.45
2023-02-04T20:03:34.827Z,10.95
2023-02-04T20:06:05.802Z,11.15
2023-02-04T20:08:44.937Z,11.95
2023-02-04T20:11:33.068Z,13.68
2023-02-04T20:14:09.645Z,11.40
2023-02-04T20:16:40.156Z,12.43
2023-02-04T20:19:19.761Z,13.48
2023-02-04T20:21:53.259Z,13.13
2023-02-04T20:24:21.584Z,12.80
2023-02-04T20:26:50.305Z,13.25
2023-02-04T20:29:21.383Z,13.77
2023-02-04T20:31:49.740Z,12.95
2023-02-04T20:34:22.225Z,14.05
2023-02-04T20:36:52.014Z,14.20
2023-02-04T20:39:41.398Z,15.38
2023-02-04T20:42:28.143Z,14.50
2023-02-04T20:44:57.054Z,13.98
2023-02-04T20:47:26.009Z,12.35
2023-02-04T20:49:56.453Z,12.45
2023-02-04T20:52:43.881Z,13.10
2023-02-04T20:55:22.507Z,12.68
2023-02-04T20:57:50.787Z,12.70
2023-02-04T21:00:27.698Z,11.85
2023-02-04T21:02:56.832Z,11.73
2023-02-04T21:05:26.538Z,9.95
2023-02-04T21:07:57.857Z,9.38
2023-02-04T21:10:26.263Z,8.95
2023-02-04T21:12:59.741Z,10.02
2023-02-04T21:15:28.074Z,9.60
2023-02-04T21:17:56.666Z,10.38
2023-02-04T21:20:25.529Z,9.52
2023-02-04T21:22:55.353Z,10.00
2023-02-04T21:25:23.645Z,10.00
2023-02-04T21:27:51.972Z,9.07
2023-02-04T21:30:22.160Z,9.30
2023-02-04T21:32:50.460Z,8.93
2023-02-04T21:35:24.311Z,8.07
2023-02-04T21:37:52.667Z,9.13
2023-02-04T21:40:22.925Z,8.77
2023-02-04T21:42:51.458Z,8.80
2023-02-04T21:45:20.392Z,8.90
2023-02-04T21:47:49.250Z,10.02
2023-02-04T21:50:18.133Z,9.77
2023-02-04T21:52:47.205Z,10.65
2023-02-04T21:55:16.323Z,9.93
2023-02-04T21:57:46.081Z,10.57
2023-02-04T22:00:15.005Z,10.65
2023-02-04T22:02:43.236Z,9.73
2023-02-04T22:05:11.686Z,9.05
2023-02-04T22:07:40.757Z,10.02
2023-02-04T22:10:10.003Z,9.70
2023-02-04T22:12:38.447Z,9.52
2023-02-04T22:15:08.505Z,9.85
2023-02-04T22:17:36.828Z,11.15
2023-02-04T22:20:05.225Z,10.38
2023-02-04T22:22:33.411Z,12.00
2023-02-04T22:25:01.844Z,10.73
2023-02-04T22:27:30.125Z,10.57
2023-02-04T22:29:58.586Z,10.80
2023-02-04T22:32:28.621Z,10.38
2023-02-04T22:34:56.965Z,9.25
2023-02-04T22:37:25.443Z,11.27
2023-02-04T22:39:53.735Z,9.52
2023-02-04T22:42:22.104Z,9.82
2023-02-04T22:44:50.441Z,10.35
2023-02-04T22:47:18.678Z,11.10
2023-02-04T22:49:48.267Z,11.30
2023-02-04T22:52:16.545Z,10.95
2023-02-04T22:54:44.858Z,10.43
2023-02-04T22:57:13.095Z,10.00
2023-02-04T22:59:41.679Z,10.82
2023-02-04T23:02:09.981Z,10.85
2023-02-04T23:04:38.441Z,11.50
2023-02-04T23:07:08.483Z,10.75
2023-02-04T23:09:37.198Z,10.50
2023-02-04T23:12:13.576Z,10.70
2023-02-04T23:14:42.406Z,10.88
2023-02-04T23:17:10.818Z,9.88
2023-02-04T23:19:39.136Z,11.50
2023-02-04T23:22:09.530Z,10.85
2023-02-04T23:24:37.902Z,10.98
2023-02-04T23:27:06.920Z,10.73
2023-02-04T23:29:35.521Z,11.30
2023-02-04T23:32:04.130Z,11.85
2023-02-04T23:34:32.813Z,11.85
2023-02-04T23:37:01.089Z,11.70
2023-02-04T23:39:30.804Z,11.75
2023-02-04T23:41:59.281Z,13.85
2023-02-04T23:44:27.653Z,11.57
2023-02-04T23:46:56.112Z,11.25
2023-02-04T23:49:24.518Z,10.75
2023-02-04T23:51:52.832Z,11.05
2023-02-04T23:54:21.150Z,12.70
2023-02-04T23:56:51.885Z,10.23
2023-02-04T23:59:20.307Z,10.68
